PWSweather.com
Personal Weather Stations
Station Observations
HARSTAD1
Kanebogen, HarstadNO 9411

KanebogenHarstadNO 9411

Lat: 68.7731054, Lon: 16.5496315

Elevation: 213

Station Type: Netatmo Weather Station

http://oddne.net/met/

Latest ConditionsUpdated 6:42:05 PM GMT+01:01 Tuesday, Jan 22, 2019
Currently Today's Max Today's Min Today's Average
Temperature 27.0°F-2.8°C 27.3°F-2.6°C 23.7°F-4.6°C 25.8°F-3.4°C
Dew Point 25.0°F-3.9°C 25.5°F-3.6°C 20.7°F-6.3°C 23.0°F-5.0°C
Winds 0.6 mph W1.0 kmh W 2.5 mph -4.0 kmh - - 1.0 mph 1.6 kmh
Wind Gusts 1.2 mph1.9 kmh 6.2 mph10.0 kmh - -
Humidity 92% 93% 85% 89%
Pressure 29.86 in1011.2 mb 29.98 in1015.2 mb 29.85 in1010.8 mb -
Hour Temp Dew Point Humidity Winds Wind Gusts Pressure Precip Precip Rate Daily Precip Total
06:42 PM 27.0°F-2.8°C 25.0°F-3.9°C 92% 0.6 mph W1.0 kmh W 1.2 mph1.9 kmh 29.86 in1011.2 mb 0.00 in0.0 mm 0.00 in0.0 mm 0.00 in0.0 mm
06:32 PM 27.0°F-2.8°C 25.0°F-3.9°C 92% 0.6 mph W1.0 kmh W 1.2 mph1.9 kmh 29.86 in1011.2 mb 0.00 in0.0 mm 0.00 in0.0 mm 0.00 in0.0 mm
06:22 PM 27.0°F-2.8°C 25.0°F-3.9°C 92% Calm Calm 1.2 mph1.9 kmh 29.86 in1011.2 mb 0.00 in0.0 mm 0.00 in0.0 mm 0.00 in0.0 mm
06:12 PM 27.1°F-2.7°C 25.3°F-3.7°C 93% Calm Calm 0.6 mph1.0 kmh 29.86 in1011.2 mb 0.00 in0.0 mm 0.00 in0.0 mm 0.00 in0.0 mm
06:02 PM 27.1°F-2.7°C 25.2°F-3.8°C 92% 0.6 mph W1.0 kmh W 1.2 mph1.9 kmh 29.86 in1011.2 mb 0.00 in0.0 mm 0.00 in0.0 mm 0.00 in0.0 mm
05:51 PM 27.3°F-2.6°C 25.3°F-3.7°C 92% 0.6 mph W1.0 kmh W 1.2 mph1.9 kmh 29.86 in1011.2 mb 0.00 in0.0 mm 0.00 in0.0 mm 0.00 in0.0 mm
05:42 PM 27.3°F-2.6°C 25.3°F-3.7°C 92% Calm Calm 1.2 mph1.9 kmh 29.86 in1011.2 mb 0.00 in0.0 mm 0.00 in0.0 mm 0.00 in0.0 mm
05:32 PM 27.3°F-2.6°C 25.3°F-3.7°C 92% Calm Calm 1.2 mph1.9 kmh 29.86 in1011.2 mb 0.00 in0.0 mm 0.00 in0.0 mm 0.00 in0.0 mm
05:21 PM 27.3°F-2.6°C 25.3°F-3.7°C 92% Calm Calm 1.2 mph1.9 kmh 29.86 in1011.2 mb 0.00 in0.0 mm 0.00 in0.0 mm 0.00 in0.0 mm
05:12 PM 27.3°F-2.6°C 25.5°F-3.6°C 93% 0.6 mph 1.0 kmh 1.9 mph3.1 kmh 29.86 in1011.2 mb 0.00 in0.0 mm 0.00 in0.0 mm 0.00 in0.0 mm
05:02 PM 27.3°F-2.6°C 25.5°F-3.6°C 93% 0.6 mph NW1.0 kmh NW 1.2 mph1.9 kmh 29.86 in1011.2 mb 0.00 in0.0 mm 0.00 in0.0 mm 0.00 in0.0 mm
04:52 PM 27.1°F-2.7°C 25.3°F-3.7°C 93% 0.6 mph W1.0 kmh W 1.2 mph1.9 kmh 29.86 in1011.2 mb 0.00 in0.0 mm 0.00 in0.0 mm 0.00 in0.0 mm
04:41 PM 27.1°F-2.7°C 25.3°F-3.7°C 93% 0.6 mph W1.0 kmh W 1.2 mph1.9 kmh 29.86 in1011.2 mb 0.00 in0.0 mm 0.00 in0.0 mm 0.00 in0.0 mm
04:31 PM 27.1°F-2.7°C 25.3°F-3.7°C 93% 0.6 mph W1.0 kmh W 1.2 mph1.9 kmh 29.86 in1011.2 mb 0.00 in0.0 mm 0.00 in0.0 mm 0.00 in0.0 mm
04:22 PM 27.1°F-2.7°C 25.3°F-3.7°C 93% 0.6 mph SW1.0 kmh SW 1.9 mph3.1 kmh 29.86 in1011.2 mb 0.00 in0.0 mm 0.00 in0.0 mm 0.00 in0.0 mm
04:11 PM 27.1°F-2.7°C 25.3°F-3.7°C 93% 0.6 mph SSE1.0 kmh SSE 1.9 mph3.1 kmh 29.86 in1011.2 mb 0.00 in0.0 mm 0.00 in0.0 mm 0.00 in0.0 mm
04:02 PM 27.1°F-2.7°C 25.3°F-3.7°C 93% 0.6 mph NE1.0 kmh NE 2.5 mph4.0 kmh 29.86 in1011.2 mb 0.00 in0.0 mm 0.00 in0.0 mm 0.00 in0.0 mm
03:52 PM 27.0°F-2.8°C 25.2°F-3.8°C 93% 0.6 mph N1.0 kmh N 1.2 mph1.9 kmh 29.85 in1010.8 mb 0.00 in0.0 mm 0.00 in0.0 mm 0.00 in0.0 mm
03:42 PM 27.0°F-2.8°C 25.2°F-3.8°C 93% 0.6 mph NNE1.0 kmh NNE 1.9 mph3.1 kmh 29.85 in1010.8 mb 0.00 in0.0 mm 0.00 in0.0 mm 0.00 in0.0 mm
03:31 PM 27.0°F-2.8°C 25.2°F-3.8°C 93% Calm Calm 0.6 mph1.0 kmh 29.85 in1010.8 mb 0.00 in0.0 mm 0.00 in0.0 mm 0.00 in0.0 mm
03:22 PM 27.0°F-2.8°C 25.2°F-3.8°C 93% 0.6 mph W1.0 kmh W 1.2 mph1.9 kmh 29.85 in1010.8 mb 0.00 in0.0 mm 0.00 in0.0 mm 0.00 in0.0 mm
03:12 PM 27.0°F-2.8°C 25.2°F-3.8°C 93% 0.6 mph W1.0 kmh W 1.9 mph3.1 kmh 29.85 in1010.8 mb 0.00 in0.0 mm 0.00 in0.0 mm 0.00 in0.0 mm
03:02 PM 27.0°F-2.8°C 25.2°F-3.8°C 93% 0.6 mph W1.0 kmh W 1.2 mph1.9 kmh 29.85 in1010.8 mb 0.00 in0.0 mm 0.00 in0.0 mm 0.00 in0.0 mm
02:52 PM 27.0°F-2.8°C 25.2°F-3.8°C 93% Calm Calm 0.6 mph1.0 kmh 29.85 in1010.8 mb 0.00 in0.0 mm 0.00 in0.0 mm 0.00 in0.0 mm
02:42 PM 27.0°F-2.8°C 25.2°F-3.8°C 93% Calm Calm 1.2 mph1.9 kmh 29.85 in1010.8 mb 0.00 in0.0 mm 0.00 in0.0 mm 0.00 in0.0 mm
02:32 PM 27.1°F-2.7°C 25.3°F-3.7°C 93% Calm Calm 0.6 mph1.0 kmh 29.85 in1010.8 mb 0.00 in0.0 mm 0.00 in0.0 mm 0.00 in0.0 mm
02:21 PM 27.1°F-2.7°C 25.3°F-3.7°C 93% Calm Calm 0.6 mph1.0 kmh 29.85 in1010.8 mb 0.00 in0.0 mm 0.00 in0.0 mm 0.00 in0.0 mm
02:11 PM 27.1°F-2.7°C 25.3°F-3.7°C 93% 0.6 mph NE1.0 kmh NE 1.2 mph1.9 kmh 29.85 in1010.8 mb 0.00 in0.0 mm 0.00 in0.0 mm 0.00 in0.0 mm
02:02 PM 27.0°F-2.8°C 25.2°F-3.8°C 93% 0.6 mph NE1.0 kmh NE 1.9 mph3.1 kmh 29.85 in1010.8 mb 0.00 in0.0 mm 0.00 in0.0 mm 0.00 in0.0 mm
01:52 PM 27.0°F-2.8°C 25.0°F-3.9°C 92% 0.6 mph NE1.0 kmh NE 1.9 mph3.1 kmh 29.85 in1010.8 mb 0.00 in0.0 mm 0.00 in0.0 mm 0.00 in0.0 mm
01:42 PM 27.0°F-2.8°C 25.0°F-3.9°C 92% Calm Calm 1.2 mph1.9 kmh 29.85 in1010.8 mb 0.00 in0.0 mm 0.00 in0.0 mm 0.00 in0.0 mm
01:32 PM 27.0°F-2.8°C 25.0°F-3.9°C 92% 0.6 mph W1.0 kmh W 1.9 mph3.1 kmh 29.85 in1010.8 mb 0.00 in0.0 mm 0.00 in0.0 mm 0.00 in0.0 mm
01:22 PM 27.0°F-2.8°C 25.0°F-3.9°C 92% 0.6 mph W1.0 kmh W 1.2 mph1.9 kmh 29.85 in1010.8 mb 0.00 in0.0 mm 0.00 in0.0 mm 0.00 in0.0 mm
01:11 PM 26.8°F-2.9°C 24.8°F-4.0°C 92% 0.6 mph NNE1.0 kmh NNE 1.9 mph3.1 kmh 29.85 in1010.8 mb 0.00 in0.0 mm 0.00 in0.0 mm 0.00 in0.0 mm
01:02 PM 26.8°F-2.9°C 24.8°F-4.0°C 92% 1.2 mph NE1.9 kmh NE 2.5 mph4.0 kmh 29.85 in1010.8 mb 0.00 in0.0 mm 0.00 in0.0 mm 0.00 in0.0 mm
12:52 PM 26.8°F-2.9°C 24.8°F-4.0°C 92% 1.2 mph W1.9 kmh W 1.9 mph3.1 kmh 29.85 in1010.8 mb 0.00 in0.0 mm 0.00 in0.0 mm 0.00 in0.0 mm
12:42 PM 26.8°F-2.9°C 24.8°F-4.0°C 92% Calm Calm 0.6 mph1.0 kmh 29.86 in1011.2 mb 0.00 in0.0 mm 0.00 in0.0 mm 0.00 in0.0 mm
12:32 PM 26.8°F-2.9°C 24.4°F-4.2°C 91% Calm Calm 1.2 mph1.9 kmh 29.86 in1011.2 mb 0.00 in0.0 mm 0.00 in0.0 mm 0.00 in0.0 mm
12:21 PM 26.8°F-2.9°C 24.4°F-4.2°C 91% Calm Calm 1.2 mph1.9 kmh 29.86 in1011.2 mb 0.00 in0.0 mm 0.00 in0.0 mm 0.00 in0.0 mm
12:12 PM 26.6°F-3.0°C 24.1°F-4.4°C 90% 1.2 mph W1.9 kmh W 3.1 mph5.0 kmh 29.86 in1011.2 mb 0.00 in0.0 mm 0.00 in0.0 mm 0.00 in0.0 mm
12:01 PM 26.6°F-3.0°C 24.1°F-4.4°C 90% 1.9 mph W3.1 kmh W 3.7 mph6.0 kmh 29.86 in1011.2 mb 0.00 in0.0 mm 0.00 in0.0 mm 0.00 in0.0 mm
11:52 AM 26.4°F-3.1°C 23.9°F-4.5°C 90% 0.6 mph W1.0 kmh W 1.9 mph3.1 kmh 29.86 in1011.2 mb 0.00 in0.0 mm 0.00 in0.0 mm 0.00 in0.0 mm
11:41 AM 26.4°F-3.1°C 23.5°F-4.7°C 89% 1.9 mph W3.1 kmh W 3.1 mph5.0 kmh 29.86 in1011.2 mb 0.00 in0.0 mm 0.00 in0.0 mm 0.00 in0.0 mm
11:32 AM 26.4°F-3.1°C 23.5°F-4.7°C 89% 1.2 mph W1.9 kmh W 2.5 mph4.0 kmh 29.86 in1011.2 mb 0.00 in0.0 mm 0.00 in0.0 mm 0.00 in0.0 mm
11:21 AM 26.6°F-3.0°C 23.5°F-4.7°C 88% 0.6 mph W1.0 kmh W 1.9 mph3.1 kmh 29.86 in1011.2 mb 0.00 in0.0 mm 0.00 in0.0 mm 0.00 in0.0 mm
11:12 AM 26.6°F-3.0°C 23.2°F-4.9°C 87% 0.6 mph SW1.0 kmh SW 1.9 mph3.1 kmh 29.86 in1011.2 mb 0.00 in0.0 mm 0.00 in0.0 mm 0.00 in0.0 mm
11:02 AM 26.6°F-3.0°C 23.0°F-5.0°C 86% 1.2 mph NW1.9 kmh NW 3.1 mph5.0 kmh 29.86 in1011.2 mb 0.00 in0.0 mm 0.00 in0.0 mm 0.00 in0.0 mm
10:51 AM 26.6°F-3.0°C 23.0°F-5.0°C 86% 1.2 mph W1.9 kmh W 3.1 mph5.0 kmh 29.86 in1011.2 mb 0.00 in0.0 mm 0.00 in0.0 mm 0.00 in0.0 mm
10:41 AM 26.6°F-3.0°C 22.6°F-5.2°C 85% 0.6 mph S1.0 kmh S 2.5 mph4.0 kmh 29.85 in1010.8 mb 0.00 in0.0 mm 0.00 in0.0 mm 0.00 in0.0 mm
10:31 AM 26.6°F-3.0°C 23.0°F-5.0°C 86% 1.9 mph SSW3.1 kmh SSW 3.7 mph6.0 kmh 29.85 in1010.8 mb 0.00 in0.0 mm 0.00 in0.0 mm 0.00 in0.0 mm
10:21 AM 26.4°F-3.1°C 22.5°F-5.3°C 85% 1.9 mph SSW3.1 kmh SSW 5.6 mph9.0 kmh 29.85 in1010.8 mb 0.00 in0.0 mm 0.00 in0.0 mm 0.00 in0.0 mm
10:12 AM 26.4°F-3.1°C 22.5°F-5.3°C 85% 1.9 mph SW3.1 kmh SW 5.6 mph9.0 kmh 29.85 in1010.8 mb 0.00 in0.0 mm 0.00 in0.0 mm 0.00 in0.0 mm
10:01 AM 26.4°F-3.1°C 22.5°F-5.3°C 85% 2.5 mph WSW4.0 kmh WSW 4.4 mph7.1 kmh 29.85 in1010.8 mb 0.00 in0.0 mm 0.00 in0.0 mm 0.00 in0.0 mm
09:52 AM 26.4°F-3.1°C 22.5°F-5.3°C 85% 1.2 mph WSW1.9 kmh WSW 2.5 mph4.0 kmh 29.85 in1010.8 mb 0.00 in0.0 mm 0.00 in0.0 mm 0.00 in0.0 mm
09:41 AM 26.4°F-3.1°C 22.5°F-5.3°C 85% 1.2 mph SW1.9 kmh SW 2.5 mph4.0 kmh 29.85 in1010.8 mb 0.00 in0.0 mm 0.00 in0.0 mm 0.00 in0.0 mm
09:32 AM 26.4°F-3.1°C 22.5°F-5.3°C 85% 1.2 mph SW1.9 kmh SW 3.7 mph6.0 kmh 29.86 in1011.2 mb 0.00 in0.0 mm 0.00 in0.0 mm 0.00 in0.0 mm
09:22 AM 26.2°F-3.2°C 22.3°F-5.4°C 85% 1.2 mph SW1.9 kmh SW 3.1 mph5.0 kmh 29.85 in1010.8 mb 0.00 in0.0 mm 0.00 in0.0 mm 0.00 in0.0 mm
09:11 AM 26.1°F-3.3°C 22.1°F-5.5°C 85% 1.2 mph SSW1.9 kmh SSW 3.7 mph6.0 kmh 29.86 in1011.2 mb 0.00 in0.0 mm 0.00 in0.0 mm 0.00 in0.0 mm
09:02 AM 26.1°F-3.3°C 22.1°F-5.5°C 85% 1.9 mph SSW3.1 kmh SSW 5.0 mph8.0 kmh 29.86 in1011.2 mb 0.00 in0.0 mm 0.00 in0.0 mm 0.00 in0.0 mm
08:52 AM 25.9°F-3.4°C 22.3°F-5.4°C 86% 1.2 mph SW1.9 kmh SW 3.1 mph5.0 kmh 29.86 in1011.2 mb 0.00 in0.0 mm 0.00 in0.0 mm 0.00 in0.0 mm
08:42 AM 25.7°F-3.5°C 22.1°F-5.5°C 86% 1.2 mph SW1.9 kmh SW 3.1 mph5.0 kmh 29.86 in1011.2 mb 0.00 in0.0 mm 0.00 in0.0 mm 0.00 in0.0 mm
08:31 AM 25.7°F-3.5°C 22.1°F-5.5°C 86% 1.2 mph S1.9 kmh S 3.7 mph6.0 kmh 29.86 in1011.2 mb 0.00 in0.0 mm 0.00 in0.0 mm 0.00 in0.0 mm
08:22 AM 25.5°F-3.6°C 22.1°F-5.5°C 87% 1.2 mph E1.9 kmh E 3.1 mph5.0 kmh 29.86 in1011.2 mb 0.00 in0.0 mm 0.00 in0.0 mm 0.00 in0.0 mm
08:11 AM 25.2°F-3.8°C 22.1°F-5.5°C 88% 1.9 mph NNE3.1 kmh NNE 3.7 mph6.0 kmh 29.86 in1011.2 mb 0.00 in0.0 mm 0.00 in0.0 mm 0.00 in0.0 mm
08:01 AM 25.0°F-3.9°C 21.9°F-5.6°C 88% 2.5 mph N4.0 kmh N 5.6 mph9.0 kmh 29.86 in1011.2 mb 0.00 in0.0 mm 0.00 in0.0 mm 0.00 in0.0 mm
07:51 AM 24.8°F-4.0°C 21.7°F-5.7°C 88% 1.2 mph NNE1.9 kmh NNE 3.7 mph6.0 kmh 29.86 in1011.2 mb 0.00 in0.0 mm 0.00 in0.0 mm 0.00 in0.0 mm
07:41 AM 24.6°F-4.1°C 21.6°F-5.8°C 88% 1.2 mph N1.9 kmh N 2.5 mph4.0 kmh 29.86 in1011.2 mb 0.00 in0.0 mm 0.00 in0.0 mm 0.00 in0.0 mm
07:32 AM 24.6°F-4.1°C 21.6°F-5.8°C 88% 1.2 mph N1.9 kmh N 2.5 mph4.0 kmh 29.86 in1011.2 mb 0.00 in0.0 mm 0.00 in0.0 mm 0.00 in0.0 mm
07:21 AM 24.4°F-4.2°C 21.4°F-5.9°C 88% 1.2 mph N1.9 kmh N 3.1 mph5.0 kmh 29.87 in1011.5 mb 0.00 in0.0 mm 0.00 in0.0 mm 0.00 in0.0 mm
07:11 AM 24.3°F-4.3°C 20.8°F-6.2°C 87% 1.2 mph NW1.9 kmh NW 3.1 mph5.0 kmh 29.87 in1011.5 mb 0.00 in0.0 mm 0.00 in0.0 mm 0.00 in0.0 mm
07:02 AM 24.4°F-4.2°C 21.0°F-6.1°C 87% 1.2 mph NW1.9 kmh NW 2.5 mph4.0 kmh 29.87 in1011.5 mb 0.00 in0.0 mm 0.00 in0.0 mm 0.00 in0.0 mm
06:51 AM 24.6°F-4.1°C 21.2°F-6.0°C 87% 0.6 mph SW1.0 kmh SW 2.5 mph4.0 kmh 29.87 in1011.5 mb 0.00 in0.0 mm 0.00 in0.0 mm 0.00 in0.0 mm
06:41 AM 24.6°F-4.1°C 21.2°F-6.0°C 87% 1.2 mph NW1.9 kmh NW 2.5 mph4.0 kmh 29.88 in1011.9 mb 0.00 in0.0 mm 0.00 in0.0 mm 0.00 in0.0 mm
06:31 AM 24.6°F-4.1°C 21.0°F-6.1°C 86% 0.6 mph NE1.0 kmh NE 1.9 mph3.1 kmh 29.88 in1011.9 mb 0.00 in0.0 mm 0.00 in0.0 mm 0.00 in0.0 mm
06:21 AM 24.4°F-4.2°C 21.0°F-6.1°C 87% 0.6 mph W1.0 kmh W 2.5 mph4.0 kmh 29.88 in1011.9 mb 0.00 in0.0 mm 0.00 in0.0 mm 0.00 in0.0 mm
06:11 AM 24.6°F-4.1°C 21.2°F-6.0°C 87% 0.6 mph NW1.0 kmh NW 1.9 mph3.1 kmh 29.89 in1012.2 mb 0.00 in0.0 mm 0.00 in0.0 mm 0.00 in0.0 mm
06:02 AM 24.4°F-4.2°C 20.8°F-6.2°C 86% 0.6 mph NW1.0 kmh NW 2.5 mph4.0 kmh 29.89 in1012.2 mb 0.00 in0.0 mm 0.00 in0.0 mm 0.00 in0.0 mm
05:51 AM 24.3°F-4.3°C 20.7°F-6.3°C 86% 0.6 mph W1.0 kmh W 1.9 mph3.1 kmh 29.89 in1012.2 mb 0.00 in0.0 mm 0.00 in0.0 mm 0.00 in0.0 mm
05:41 AM 24.4°F-4.2°C 20.8°F-6.2°C 86% 1.2 mph W1.9 kmh W 3.1 mph5.0 kmh 29.89 in1012.2 mb 0.00 in0.0 mm 0.00 in0.0 mm 0.00 in0.0 mm
05:31 AM 24.6°F-4.1°C 21.0°F-6.1°C 86% 1.2 mph WNW1.9 kmh WNW 3.1 mph5.0 kmh 29.89 in1012.2 mb 0.00 in0.0 mm 0.00 in0.0 mm 0.00 in0.0 mm
05:21 AM 24.6°F-4.1°C 21.0°F-6.1°C 86% 1.2 mph NNW1.9 kmh NNW 2.5 mph4.0 kmh 29.90 in1012.5 mb 0.00 in0.0 mm 0.00 in0.0 mm 0.00 in0.0 mm
05:12 AM 24.6°F-4.1°C 21.2°F-6.0°C 87% 0.6 mph W1.0 kmh W 2.5 mph4.0 kmh 29.90 in1012.5 mb 0.00 in0.0 mm 0.00 in0.0 mm 0.00 in0.0 mm
05:01 AM 24.8°F-4.0°C 21.4°F-5.9°C 87% 0.6 mph W1.0 kmh W 3.1 mph5.0 kmh 29.90 in1012.5 mb 0.00 in0.0 mm 0.00 in0.0 mm 0.00 in0.0 mm
04:51 AM 25.0°F-3.9°C 21.6°F-5.8°C 87% 0.6 mph SE1.0 kmh SE 3.7 mph6.0 kmh 29.90 in1012.5 mb 0.00 in0.0 mm 0.00 in0.0 mm 0.00 in0.0 mm
04:41 AM 24.8°F-4.0°C 21.4°F-5.9°C 87% 1.2 mph N1.9 kmh N 3.1 mph5.0 kmh 29.91 in1012.9 mb 0.00 in0.0 mm 0.00 in0.0 mm 0.00 in0.0 mm
04:32 AM 24.6°F-4.1°C 21.6°F-5.8°C 88% 2.5 mph NNE4.0 kmh NNE 4.4 mph7.1 kmh 29.91 in1012.9 mb 0.00 in0.0 mm 0.00 in0.0 mm 0.00 in0.0 mm
04:21 AM 24.4°F-4.2°C 21.4°F-5.9°C 88% 1.2 mph N1.9 kmh N 3.7 mph6.0 kmh 29.91 in1012.9 mb 0.00 in0.0 mm 0.00 in0.0 mm 0.00 in0.0 mm
04:11 AM 24.4°F-4.2°C 21.4°F-5.9°C 88% 1.2 mph N1.9 kmh N 3.7 mph6.0 kmh 29.91 in1012.9 mb 0.00 in0.0 mm 0.00 in0.0 mm 0.00 in0.0 mm
04:01 AM 24.3°F-4.3°C 21.2°F-6.0°C 88% 1.9 mph N3.1 kmh N 3.1 mph5.0 kmh 29.91 in1012.9 mb 0.00 in0.0 mm 0.00 in0.0 mm 0.00 in0.0 mm
03:51 AM 24.3°F-4.3°C 21.4°F-5.9°C 89% 1.2 mph NE1.9 kmh NE 3.7 mph6.0 kmh 29.91 in1012.9 mb 0.00 in0.0 mm 0.00 in0.0 mm 0.00 in0.0 mm
03:41 AM 24.1°F-4.4°C 21.2°F-6.0°C 89% 0.6 mph N1.0 kmh N 1.9 mph3.1 kmh 29.91 in1012.9 mb 0.00 in0.0 mm 0.00 in0.0 mm 0.00 in0.0 mm
03:31 AM 24.1°F-4.4°C 21.2°F-6.0°C 89% 1.2 mph N1.9 kmh N 3.1 mph5.0 kmh 29.92 in1013.2 mb 0.00 in0.0 mm 0.00 in0.0 mm 0.00 in0.0 mm
03:21 AM 24.1°F-4.4°C 21.2°F-6.0°C 89% 1.2 mph W1.9 kmh W 5.0 mph8.0 kmh 29.92 in1013.2 mb 0.00 in0.0 mm 0.00 in0.0 mm 0.00 in0.0 mm
03:11 AM 23.9°F-4.5°C 21.4°F-5.9°C 90% 1.2 mph SW1.9 kmh SW 3.7 mph6.0 kmh 29.93 in1013.5 mb 0.00 in0.0 mm 0.00 in0.0 mm 0.00 in0.0 mm
03:01 AM 23.7°F-4.6°C 21.2°F-6.0°C 90% 1.2 mph W1.9 kmh W 3.1 mph5.0 kmh 29.93 in1013.5 mb 0.00 in0.0 mm 0.00 in0.0 mm 0.00 in0.0 mm
02:51 AM 23.9°F-4.5°C 21.4°F-5.9°C 90% 1.2 mph WNW1.9 kmh WNW 3.1 mph5.0 kmh 29.94 in1013.9 mb 0.00 in0.0 mm 0.00 in0.0 mm 0.00 in0.0 mm
02:41 AM 23.9°F-4.5°C 21.0°F-6.1°C 89% 1.2 mph WNW1.9 kmh WNW 3.7 mph6.0 kmh 29.94 in1013.9 mb 0.00 in0.0 mm 0.00 in0.0 mm 0.00 in0.0 mm
02:32 AM 24.1°F-4.4°C 21.2°F-6.0°C 89% 1.2 mph W1.9 kmh W 3.1 mph5.0 kmh 29.94 in1013.9 mb 0.00 in0.0 mm 0.00 in0.0 mm 0.00 in0.0 mm
02:21 AM 24.3°F-4.3°C 21.2°F-6.0°C 88% 1.9 mph WNW3.1 kmh WNW 3.1 mph5.0 kmh 29.94 in1013.9 mb 0.00 in0.0 mm 0.00 in0.0 mm 0.00 in0.0 mm
02:12 AM 25.0°F-3.9°C 22.1°F-5.5°C 89% 1.2 mph WSW1.9 kmh WSW 2.5 mph4.0 kmh 29.95 in1014.2 mb 0.00 in0.0 mm 0.00 in0.0 mm 0.00 in0.0 mm
02:02 AM 25.0°F-3.9°C 22.1°F-5.5°C 89% 1.2 mph WSW1.9 kmh WSW 2.5 mph4.0 kmh 29.95 in1014.2 mb 0.00 in0.0 mm 0.00 in0.0 mm 0.00 in0.0 mm
01:51 AM 25.2°F-3.8°C 22.3°F-5.4°C 89% 1.9 mph WSW3.1 kmh WSW 3.7 mph6.0 kmh 29.95 in1014.2 mb 0.00 in0.0 mm 0.00 in0.0 mm 0.00 in0.0 mm
01:42 AM 25.2°F-3.8°C 22.3°F-5.4°C 89% 1.9 mph ESE3.1 kmh ESE 5.0 mph8.0 kmh 29.96 in1014.6 mb 0.00 in0.0 mm 0.00 in0.0 mm 0.00 in0.0 mm
01:31 AM 25.0°F-3.9°C 22.5°F-5.3°C 90% 1.2 mph SE1.9 kmh SE 5.0 mph8.0 kmh 29.96 in1014.6 mb 0.00 in0.0 mm 0.00 in0.0 mm 0.00 in0.0 mm
01:21 AM 25.0°F-3.9°C 22.5°F-5.3°C 90% 1.2 mph SSE1.9 kmh SSE 4.4 mph7.1 kmh 29.96 in1014.6 mb 0.00 in0.0 mm 0.00 in0.0 mm 0.00 in0.0 mm
01:11 AM 24.6°F-4.1°C 22.1°F-5.5°C 90% 1.2 mph E1.9 kmh E 3.7 mph6.0 kmh 29.96 in1014.6 mb 0.00 in0.0 mm 0.00 in0.0 mm 0.00 in0.0 mm
01:02 AM 24.6°F-4.1°C 21.7°F-5.7°C 89% 1.2 mph SW1.9 kmh SW 3.1 mph5.0 kmh 29.97 in1014.9 mb 0.00 in0.0 mm 0.00 in0.0 mm 0.00 in0.0 mm
12:52 AM 24.8°F-4.0°C 21.9°F-5.6°C 89% 1.2 mph WSW1.9 kmh WSW 3.7 mph6.0 kmh 29.97 in1014.9 mb 0.00 in0.0 mm 0.00 in0.0 mm 0.00 in0.0 mm
12:42 AM 24.8°F-4.0°C 21.9°F-5.6°C 89% 1.2 mph SW1.9 kmh SW 3.1 mph5.0 kmh 29.98 in1015.2 mb 0.00 in0.0 mm 0.00 in0.0 mm 0.00 in0.0 mm
12:32 AM 25.0°F-3.9°C 22.1°F-5.5°C 89% 1.2 mph WSW1.9 kmh WSW 3.7 mph6.0 kmh 29.98 in1015.2 mb 0.00 in0.0 mm 0.00 in0.0 mm 0.00 in0.0 mm
12:21 AM 25.0°F-3.9°C 22.5°F-5.3°C 90% 2.5 mph WSW4.0 kmh WSW 6.2 mph10.0 kmh 29.98 in1015.2 mb 0.00 in0.0 mm 0.00 in0.0 mm 0.00 in0.0 mm
12:12 AM 25.2°F-3.8°C 22.3°F-5.4°C 89% 1.2 mph SW1.9 kmh SW 3.1 mph5.0 kmh 29.98 in1015.2 mb 0.00 in0.0 mm 0.00 in0.0 mm 0.00 in0.0 mm
12:02 AM 25.2°F-3.8°C 22.3°F-5.4°C 89% 1.2 mph SW1.9 kmh SW 3.1 mph5.0 kmh 29.98 in1015.2 mb 0.00 in0.0 mm 0.00 in0.0 mm 0.00 in0.0 mm